createdAt,value
2019-05-05T00:00:14.343Z,4.20
2019-05-05T00:03:00.245Z,5.80
2019-05-05T00:05:31.300Z,6.00
2019-05-05T00:08:00.360Z,6.90
2019-05-05T00:10:34.789Z,5.00
2019-05-05T00:13:08.396Z,6.15
2019-05-05T00:15:41.172Z,5.62
2019-05-05T00:18:10.520Z,4.47
2019-05-05T00:20:39.547Z,4.72
2019-05-05T00:23:08.851Z,5.17
2019-05-05T00:25:37.877Z,8.48
2019-05-05T00:28:06.943Z,7.28
2019-05-05T00:30:36.040Z,6.17
2019-05-05T00:33:05.645Z,8.20
2019-05-05T00:35:34.834Z,6.50
2019-05-05T00:38:05.088Z,6.45
2019-05-05T00:40:35.277Z,11.93
2019-05-05T00:43:05.341Z,7.72
2019-05-05T00:45:35.605Z,8.40
2019-05-05T00:48:18.440Z,7.53
2019-05-05T00:50:47.539Z,7.78
2019-05-05T00:53:16.576Z,8.15
2019-05-05T00:55:45.610Z,6.40
2019-05-05T00:58:14.659Z,5.53
2019-05-05T01:00:48.185Z,4.28
2019-05-05T01:03:18.791Z,7.00
2019-05-05T01:05:55.338Z,5.78
2019-05-05T01:08:30.539Z,5.25
2019-05-05T01:10:59.710Z,5.70
2019-05-05T01:13:28.752Z,5.53
2019-05-05T01:15:57.859Z,8.20
2019-05-05T01:18:27.047Z,4.00
2019-05-05T01:20:56.137Z,6.40
2019-05-05T01:23:25.291Z,7.65
2019-05-05T01:25:54.512Z,4.75
2019-05-05T01:28:24.965Z,5.90
2019-05-05T01:30:56.004Z,6.33
2019-05-05T01:33:35.407Z,4.87
2019-05-05T01:36:05.121Z,5.55
2019-05-05T01:38:38.267Z,5.22
2019-05-05T01:41:14.635Z,4.60
2019-05-05T01:43:45.210Z,4.30
2019-05-05T01:46:14.418Z,6.00
2019-05-05T01:48:44.499Z,4.12
2019-05-05T01:51:14.304Z,4.35
2019-05-05T01:53:44.331Z,6.78
2019-05-05T01:56:15.385Z,4.55
2019-05-05T01:58:44.573Z,4.70
2019-05-05T02:01:15.301Z,10.35
2019-05-05T02:03:44.705Z,4.03
2019-05-05T02:06:14.293Z,4.42
2019-05-05T02:08:45.464Z,5.85
2019-05-05T02:11:15.609Z,4.83
2019-05-05T02:13:45.201Z,4.40
2019-05-05T02:16:15.073Z,6.78
2019-05-05T02:18:45.071Z,5.53
2019-05-05T02:21:14.404Z,6.50
2019-05-05T02:23:45.288Z,5.33
2019-05-05T02:26:15.276Z,8.68
2019-05-05T02:28:46.212Z,3.77
2019-05-05T02:31:25.269Z,5.90
2019-05-05T02:33:56.587Z,4.30
2019-05-05T02:36:25.856Z,6.40
2019-05-05T02:38:56.687Z,8.10
2019-05-05T02:41:26.943Z,5.50
2019-05-05T02:43:56.720Z,3.85
2019-05-05T02:46:28.078Z,4.25
2019-05-05T02:48:59.707Z,5.72
2019-05-05T02:51:29.384Z,3.55
2019-05-05T02:54:00.620Z,5.25
2019-05-05T02:56:34.246Z,3.83
2019-05-05T02:59:06.312Z,6.15
2019-05-05T03:01:46.071Z,6.58
2019-05-05T03:04:15.263Z,7.40
2019-05-05T03:06:47.436Z,8.50
2019-05-05T03:09:18.395Z,3.85
2019-05-05T03:11:49.188Z,6.92
2019-05-05T03:14:19.825Z,4.37
2019-05-05T03:16:50.004Z,4.03
2019-05-05T03:19:23.521Z,6.80
2019-05-05T03:21:54.535Z,4.50
2019-05-05T03:24:23.814Z,4.53
2019-05-05T03:26:53.781Z,7.72
2019-05-05T03:29:24.378Z,4.85
2019-05-05T03:31:56.243Z,6.15
2019-05-05T03:34:24.603Z,7.33
2019-05-05T03:36:53.911Z,5.55
2019-05-05T03:39:25.124Z,4.05
2019-05-05T03:42:13.816Z,5.22
2019-05-05T03:45:04.190Z,5.95
2019-05-05T03:47:33.776Z,5.65
2019-05-05T03:50:04.372Z,4.65
2019-05-05T03:52:34.601Z,8.43
2019-05-05T03:55:06.269Z,5.80
2019-05-05T03:57:35.445Z,8.75
2019-05-05T04:00:07.208Z,9.15
2019-05-05T04:02:44.559Z,4.83
2019-05-05T04:05:18.500Z,5.45
2019-05-05T04:07:47.353Z,5.55
2019-05-05T04:10:18.147Z,4.72
2019-05-05T04:12:47.891Z,5.20
2019-05-05T04:15:16.941Z,5.78
2019-05-05T04:18:04.010Z,7.05
2019-05-05T04:20:33.877Z,5.85
2019-05-05T04:23:03.765Z,10.72
2019-05-05T04:25:34.876Z,6.28
2019-05-05T04:28:04.378Z,12.15
2019-05-05T04:30:33.898Z,9.28
2019-05-05T04:33:03.858Z,9.05
2019-05-05T04:35:33.938Z,6.03
2019-05-05T04:38:04.702Z,8.28
2019-05-05T04:40:34.526Z,8.43
2019-05-05T04:43:03.991Z,6.92
2019-05-05T04:45:34.738Z,11.10
2019-05-05T04:48:05.585Z,9.75
2019-05-05T04:50:36.264Z,10.08
2019-05-05T04:53:06.934Z,7.85
2019-05-05T04:55:35.977Z,8.53
2019-05-05T04:58:05.028Z,8.63
2019-05-05T05:00:34.262Z,10.65
2019-05-05T05:03:05.137Z,12.60
2019-05-05T05:05:38.813Z,10.80
2019-05-05T05:08:07.552Z,12.28
2019-05-05T05:10:36.636Z,16.87
2019-05-05T05:13:05.679Z,16.95
2019-05-05T05:15:34.742Z,10.90
2019-05-05T05:18:11.208Z,8.95
2019-05-05T05:20:40.264Z,18.35
2019-05-05T05:23:09.304Z,12.13
2019-05-05T05:25:38.432Z,15.13
2019-05-05T05:28:07.509Z,17.17
2019-05-05T05:30:36.851Z,22.05
2019-05-05T05:33:05.969Z,17.48
2019-05-05T05:35:35.043Z,21.80
2019-05-05T05:38:04.598Z,21.45
2019-05-05T05:40:35.629Z,17.23
2019-05-05T05:43:06.298Z,25.72
2019-05-05T05:45:46.208Z,22.55
2019-05-05T05:48:16.917Z,21.95
2019-05-05T05:50:47.711Z,19.80
2019-05-05T05:53:16.756Z,24.27
2019-05-05T05:55:45.831Z,26.57
2019-05-05T05:58:14.880Z,22.50
2019-05-05T06:00:44.400Z,23.87
2019-05-05T06:03:14.926Z,22.87
2019-05-05T06:05:44.127Z,26.97
2019-05-05T06:08:14.173Z,29.37
2019-05-05T06:10:44.231Z,20.32
2019-05-05T06:13:15.259Z,20.02
2019-05-05T06:15:44.538Z,28.05
2019-05-05T06:18:13.950Z,26.05
2019-05-05T06:20:44.593Z,23.30
2019-05-05T06:23:14.774Z,31.93
2019-05-05T06:25:44.856Z,21.73
2019-05-05T06:28:14.462Z,24.35
2019-05-05T06:30:44.497Z,24.90
2019-05-05T06:33:14.192Z,23.73
2019-05-05T06:35:44.351Z,22.22
2019-05-05T06:38:13.793Z,26.10
2019-05-05T06:41:00.975Z,22.27
2019-05-05T06:43:40.332Z,22.40
2019-05-05T06:46:11.119Z,21.87
2019-05-05T06:48:40.240Z,20.15
2019-05-05T06:51:09.284Z,23.80
2019-05-05T06:53:38.349Z,21.62
2019-05-05T06:56:07.385Z,25.23
2019-05-05T06:58:36.444Z,20.65
2019-05-05T07:01:05.573Z,23.15
2019-05-05T07:03:34.658Z,18.62
2019-05-05T07:06:04.400Z,26.82
2019-05-05T07:08:34.681Z,23.02
2019-05-05T07:11:04.315Z,22.75
2019-05-05T07:13:34.053Z,20.20
2019-05-05T07:16:04.799Z,22.82
2019-05-05T07:18:34.327Z,28.98
2019-05-05T07:21:03.822Z,25.35
2019-05-05T07:23:34.069Z,21.52
2019-05-05T07:26:04.137Z,19.52
2019-05-05T07:28:34.289Z,20.37
2019-05-05T07:31:04.363Z,19.27
2019-05-05T07:33:34.670Z,19.10
2019-05-05T07:36:21.942Z,16.82
2019-05-05T07:38:51.043Z,23.83
2019-05-05T07:41:20.091Z,14.65
2019-05-05T07:43:49.161Z,16.52
2019-05-05T07:46:18.212Z,13.62
2019-05-05T07:48:47.287Z,16.57
2019-05-05T07:51:16.355Z,13.30
2019-05-05T07:53:45.443Z,16.87
2019-05-05T07:56:14.669Z,18.92
2019-05-05T07:58:44.042Z,17.50
2019-05-05T08:01:14.082Z,16.77
2019-05-05T08:03:44.559Z,16.17
2019-05-05T08:06:14.497Z,16.40
2019-05-05T08:08:44.440Z,14.55
2019-05-05T08:11:14.791Z,23.30
2019-05-05T08:13:44.419Z,17.52
2019-05-05T08:16:21.282Z,15.05
2019-05-05T08:18:51.997Z,17.50
2019-05-05T08:21:21.041Z,16.90
2019-05-05T08:23:54.432Z,16.02
2019-05-05T08:26:27.254Z,12.97
2019-05-05T08:29:14.383Z,15.80
2019-05-05T08:32:00.381Z,17.67
2019-05-05T08:34:29.453Z,17.45
2019-05-05T08:36:59.972Z,17.27
2019-05-05T08:39:29.243Z,16.35
2019-05-05T08:41:58.311Z,14.58
2019-05-05T08:44:27.364Z,11.55
2019-05-05T08:46:57.964Z,16.62
2019-05-05T08:49:27.019Z,16.70
2019-05-05T08:51:56.076Z,13.45
2019-05-05T08:54:25.148Z,18.15
2019-05-05T08:56:55.004Z,17.92
2019-05-05T08:59:24.303Z,18.50
2019-05-05T09:02:15.169Z,14.60
2019-05-05T09:04:44.777Z,14.43
2019-05-05T09:07:13.984Z,16.60
2019-05-05T09:09:44.139Z,12.82
2019-05-05T09:12:14.045Z,14.30
2019-05-05T09:14:44.899Z,12.00
2019-05-05T09:17:13.992Z,15.80
2019-05-05T09:19:44.915Z,14.15
2019-05-05T09:22:14.107Z,17.92
2019-05-05T09:24:56.732Z,9.23
2019-05-05T09:27:28.386Z,14.68
2019-05-05T09:29:57.573Z,8.93
2019-05-05T09:32:26.637Z,15.40
2019-05-05T09:34:55.686Z,15.13
2019-05-05T09:37:24.980Z,12.18
2019-05-05T09:39:54.249Z,13.05
2019-05-05T09:42:23.691Z,12.15
2019-05-05T09:44:54.169Z,12.53
2019-05-05T09:47:25.192Z,20.77
2019-05-05T09:49:54.978Z,12.33
2019-05-05T09:52:24.475Z,15.43
2019-05-05T09:54:54.398Z,9.63
2019-05-05T09:57:23.813Z,10.72
2019-05-05T09:59:54.673Z,11.50
2019-05-05T10:02:24.102Z,9.25
2019-05-05T10:04:54.665Z,13.05
2019-05-05T10:07:24.354Z,13.38
2019-05-05T10:09:54.266Z,11.85
2019-05-05T10:12:23.451Z,15.23
2019-05-05T10:14:54.234Z,10.45
2019-05-05T10:17:24.379Z,13.40
2019-05-05T10:19:54.695Z,11.43
2019-05-05T10:22:23.934Z,9.25
2019-05-05T10:24:57.371Z,12.00
2019-05-05T10:27:25.548Z,13.53
2019-05-05T10:29:54.881Z,12.47
2019-05-05T10:32:24.581Z,8.88
2019-05-05T10:34:55.428Z,7.83
2019-05-05T10:37:43.879Z,10.25
2019-05-05T10:40:14.900Z,14.53
2019-05-05T10:42:50.159Z,14.10
2019-05-05T10:45:21.516Z,11.97
2019-05-05T10:47:51.832Z,10.50
2019-05-05T10:50:21.112Z,10.38
2019-05-05T10:52:50.235Z,9.00
2019-05-05T10:55:19.739Z,10.23
2019-05-05T10:57:48.801Z,13.58
2019-05-05T11:00:37.409Z,12.58
2019-05-05T11:03:06.547Z,10.18
2019-05-05T11:05:37.784Z,11.22
2019-05-05T11:08:06.729Z,8.93
2019-05-05T11:10:36.047Z,9.35
2019-05-05T11:13:05.245Z,10.03
2019-05-05T11:15:34.281Z,7.67
2019-05-05T11:18:04.117Z,10.32
2019-05-05T11:20:34.080Z,9.93
2019-05-05T11:23:04.878Z,12.73
2019-05-05T11:25:34.173Z,11.22
2019-05-05T11:28:04.922Z,11.63
2019-05-05T11:30:37.551Z,10.48
2019-05-05T11:33:17.184Z,11.70
2019-05-05T11:35:57.752Z,11.50
2019-05-05T11:38:26.814Z,12.23
2019-05-05T11:40:55.859Z,9.55
2019-05-05T11:43:24.981Z,10.58
2019-05-05T11:45:54.571Z,9.43
2019-05-05T11:48:24.177Z,9.23
2019-05-05T11:50:54.026Z,9.68
2019-05-05T11:53:25.155Z,11.18
2019-05-05T11:55:54.903Z,7.37
2019-05-05T11:58:24.917Z,9.60
2019-05-05T12:00:54.715Z,10.35
2019-05-05T12:03:23.980Z,13.00
2019-05-05T12:05:53.107Z,8.08
2019-05-05T12:08:23.818Z,10.35
2019-05-05T12:11:00.437Z,12.07
2019-05-05T12:13:29.483Z,7.92
2019-05-05T12:16:00.380Z,10.98
2019-05-05T12:18:29.515Z,13.05
2019-05-05T12:20:58.586Z,13.30
2019-05-05T12:23:27.696Z,11.30
2019-05-05T12:26:01.144Z,11.90
2019-05-05T12:28:34.760Z,7.50
2019-05-05T12:31:11.328Z,12.78
2019-05-05T12:33:40.353Z,9.90
2019-05-05T12:36:09.492Z,10.80
2019-05-05T12:38:38.556Z,15.85
2019-05-05T12:41:07.596Z,9.83
2019-05-05T12:43:36.735Z,7.55
2019-05-05T12:46:07.479Z,6.58
2019-05-05T12:48:43.686Z,12.07
2019-05-05T12:51:14.609Z,8.55
2019-05-05T12:53:43.238Z,11.35
2019-05-05T12:56:14.487Z,5.62
2019-05-05T12:58:43.995Z,10.40
2019-05-05T13:01:15.544Z,11.08
2019-05-05T13:03:44.574Z,8.23
2019-05-05T13:07:04.977Z,9.70
2019-05-05T13:09:34.159Z,6.42
2019-05-05T13:12:04.528Z,13.08
2019-05-05T13:14:33.759Z,11.18
2019-05-05T13:17:03.626Z,10.35
2019-05-05T13:19:34.756Z,10.72
2019-05-05T13:22:25.472Z,14.90
2019-05-05T13:25:05.101Z,10.95
2019-05-05T13:27:35.795Z,13.00
2019-05-05T13:30:08.181Z,8.45
2019-05-05T13:32:37.367Z,9.28
2019-05-05T13:35:07.740Z,10.80
2019-05-05T13:37:36.788Z,10.60
2019-05-05T13:40:07.272Z,10.20
2019-05-05T13:42:36.315Z,7.92
2019-05-05T13:45:11.135Z,5.90
2019-05-05T13:47:40.187Z,7.72
2019-05-05T13:50:17.743Z,6.33
2019-05-05T13:52:46.793Z,8.75
2019-05-05T13:55:16.052Z,7.75
2019-05-05T13:57:45.103Z,5.72
2019-05-05T14:00:16.317Z,6.55
2019-05-05T14:02:45.355Z,7.62
2019-05-05T14:05:14.549Z,7.97
2019-05-05T14:07:43.793Z,9.35
2019-05-05T14:10:14.400Z,12.80
2019-05-05T14:12:43.847Z,8.35
2019-05-05T14:15:19.040Z,11.95
2019-05-05T14:17:48.319Z,5.80
2019-05-05T14:20:17.785Z,8.83
2019-05-05T14:22:46.832Z,6.85
2019-05-05T14:25:17.758Z,11.60
2019-05-05T14:27:46.878Z,11.15
2019-05-05T14:30:23.897Z,9.30
2019-05-05T14:32:54.430Z,9.08
2019-05-05T14:35:25.376Z,7.12
2019-05-05T14:37:56.063Z,9.28
2019-05-05T14:40:25.127Z,7.58
2019-05-05T14:42:54.184Z,9.23
2019-05-05T14:45:23.573Z,11.08
2019-05-05T14:47:53.524Z,9.40
2019-05-05T14:50:24.227Z,12.20
2019-05-05T14:52:53.629Z,12.90
2019-05-05T14:55:22.752Z,16.57
2019-05-05T14:57:53.474Z,13.70
2019-05-05T15:00:24.526Z,12.73
2019-05-05T15:02:54.484Z,9.40
2019-05-05T15:05:40.521Z,17.23
2019-05-05T15:08:19.912Z,12.78
2019-05-05T15:10:50.607Z,14.60
2019-05-05T15:13:21.147Z,10.63
2019-05-05T15:15:50.249Z,10.45
2019-05-05T15:18:19.308Z,11.03
2019-05-05T15:20:48.334Z,8.93
2019-05-05T15:23:17.360Z,6.50
2019-05-05T15:25:46.406Z,8.05
2019-05-05T15:28:15.431Z,6.85
2019-05-05T15:30:44.494Z,7.55
2019-05-05T15:33:13.873Z,7.90
2019-05-05T15:35:46.056Z,9.60
2019-05-05T15:38:13.889Z,4.92
2019-05-05T15:40:44.981Z,6.97
2019-05-05T15:43:14.438Z,6.62
2019-05-05T15:45:43.483Z,7.37
2019-05-05T15:48:13.980Z,8.23
2019-05-05T15:50:43.925Z,7.00
2019-05-05T15:53:14.379Z,5.20
2019-05-05T15:55:44.109Z,5.30
2019-05-05T15:58:14.197Z,8.28
2019-05-05T16:00:44.318Z,4.80
2019-05-05T16:03:13.625Z,4.53
2019-05-05T16:05:43.644Z,8.08
2019-05-05T16:08:14.116Z,5.97
2019-05-05T16:10:46.191Z,7.22
2019-05-05T16:13:14.112Z,7.50
2019-05-05T16:15:44.793Z,7.58
2019-05-05T16:18:18.400Z,5.58
2019-05-05T16:20:54.789Z,6.78
2019-05-05T16:23:28.231Z,7.28
2019-05-05T16:25:56.785Z,3.87
2019-05-05T16:28:25.843Z,8.15
2019-05-05T16:30:56.248Z,5.80
2019-05-05T16:33:25.401Z,8.20
2019-05-05T16:35:54.462Z,6.25
2019-05-05T16:38:24.055Z,7.17
2019-05-05T16:40:53.790Z,6.53
2019-05-05T16:43:24.728Z,7.10
2019-05-05T16:45:53.885Z,5.97
2019-05-05T16:48:25.379Z,6.17
2019-05-05T16:50:54.182Z,5.10
2019-05-05T16:53:35.784Z,6.62
2019-05-05T16:56:07.828Z,6.10
2019-05-05T16:58:36.934Z,8.23
2019-05-05T17:01:07.610Z,9.53
2019-05-05T17:03:36.648Z,6.60
2019-05-05T17:06:05.764Z,6.95
2019-05-05T17:08:34.804Z,8.53
2019-05-05T17:11:03.915Z,9.05
2019-05-05T17:13:44.095Z,8.83
2019-05-05T17:16:30.868Z,11.93
2019-05-05T17:19:01.539Z,5.55
2019-05-05T17:21:47.209Z,9.90
2019-05-05T17:24:16.352Z,8.50
2019-05-05T17:26:45.392Z,8.00
2019-05-05T17:29:14.702Z,10.78
2019-05-05T17:31:44.426Z,9.15
2019-05-05T17:34:13.823Z,11.63
2019-05-05T17:36:45.111Z,13.45
2019-05-05T17:39:13.810Z,11.70
2019-05-05T17:41:44.601Z,9.15
2019-05-05T17:44:15.344Z,10.25
2019-05-05T17:46:49.004Z,17.65
2019-05-05T17:49:22.916Z,12.25
2019-05-05T17:51:54.561Z,6.90
2019-05-05T17:54:36.656Z,6.57
2019-05-05T17:57:05.700Z,6.85
2019-05-05T17:59:34.747Z,6.55
2019-05-05T18:02:04.763Z,11.05
2019-05-05T18:04:34.073Z,8.13
2019-05-05T18:07:04.760Z,6.47
2019-05-05T18:09:53.785Z,6.60
2019-05-05T18:12:24.685Z,10.25
2019-05-05T18:14:58.045Z,9.20
2019-05-05T18:17:37.033Z,8.83
2019-05-05T18:20:06.998Z,10.43
2019-05-05T18:22:36.047Z,11.85
2019-05-05T18:25:06.221Z,8.00
2019-05-05T18:27:35.316Z,8.93
2019-05-05T18:30:06.078Z,7.70
2019-05-05T18:32:35.120Z,6.70
2019-05-05T18:35:06.753Z,7.58
2019-05-05T18:37:36.016Z,8.45
2019-05-05T18:40:06.652Z,6.10
2019-05-05T18:42:35.863Z,10.05
2019-05-05T18:45:08.863Z,10.32
2019-05-05T18:47:37.910Z,9.05
2019-05-05T18:50:07.479Z,8.53
2019-05-05T18:52:36.516Z,7.25
2019-05-05T18:55:07.025Z,5.25
2019-05-05T18:57:36.071Z,6.33
2019-05-05T19:00:09.936Z,7.67
2019-05-05T19:02:49.509Z,7.08
2019-05-05T19:05:29.356Z,7.12
2019-05-05T19:08:09.015Z,8.18
2019-05-05T19:10:38.116Z,7.37
2019-05-05T19:13:07.185Z,8.53
2019-05-05T19:15:36.278Z,8.45
2019-05-05T19:18:06.963Z,4.87
2019-05-05T19:20:44.421Z,8.73
2019-05-05T19:23:14.772Z,9.53
2019-05-05T19:25:44.854Z,8.33
2019-05-05T19:28:14.308Z,21.17
2019-05-05T19:30:44.060Z,7.50
2019-05-05T19:33:13.473Z,12.28
2019-05-05T19:35:46.912Z,12.13
2019-05-05T19:38:15.777Z,9.83
2019-05-05T19:40:45.087Z,11.10
2019-05-05T19:43:14.178Z,12.43
2019-05-05T19:45:44.817Z,14.63
2019-05-05T19:48:14.924Z,12.23
2019-05-05T19:50:51.650Z,9.85
2019-05-05T19:53:24.914Z,8.98
2019-05-05T19:55:54.853Z,6.83
2019-05-05T19:58:24.142Z,13.32
2019-05-05T20:00:54.953Z,9.73
2019-05-05T20:03:24.274Z,12.28
2019-05-05T20:05:54.056Z,8.33
2019-05-05T20:08:23.973Z,10.72
2019-05-05T20:10:54.191Z,12.50
2019-05-05T20:13:24.009Z,10.98
2019-05-05T20:16:04.521Z,11.70
2019-05-05T20:18:34.251Z,11.45
2019-05-05T20:21:06.835Z,9.53
2019-05-05T20:23:34.535Z,10.15
2019-05-05T20:26:03.954Z,11.50
2019-05-05T20:28:33.878Z,11.35
2019-05-05T20:31:03.698Z,10.72
2019-05-05T20:33:40.770Z,9.45
2019-05-05T20:36:11.532Z,11.40
2019-05-05T20:38:51.079Z,8.80
2019-05-05T20:41:21.411Z,16.52
2019-05-05T20:43:50.444Z,9.03
2019-05-05T20:46:19.561Z,7.70
2019-05-05T20:48:48.609Z,10.13
2019-05-05T20:51:17.745Z,10.98
2019-05-05T20:53:49.090Z,8.83
2019-05-05T20:56:17.538Z,8.83
2019-05-05T20:58:46.641Z,8.03
2019-05-05T21:01:15.689Z,9.28
2019-05-05T21:03:44.863Z,9.63
2019-05-05T21:06:14.040Z,9.20
2019-05-05T21:08:44.005Z,10.88
2019-05-05T21:11:14.156Z,6.87
2019-05-05T21:13:45.082Z,6.80
2019-05-05T21:16:14.400Z,9.25
2019-05-05T21:18:43.592Z,7.97
2019-05-05T21:21:14.284Z,10.32
2019-05-05T21:23:44.949Z,7.35
2019-05-05T21:26:18.613Z,13.00
2019-05-05T21:28:47.369Z,18.02
2019-05-05T21:31:16.412Z,9.83
2019-05-05T21:33:45.528Z,11.48
2019-05-05T21:36:14.772Z,11.48
2019-05-05T21:38:44.079Z,10.78
2019-05-05T21:41:13.872Z,9.88
2019-05-05T21:43:44.886Z,17.02
2019-05-05T21:46:13.892Z,12.13
2019-05-05T21:48:44.802Z,13.98
2019-05-05T21:51:30.084Z,11.48
2019-05-05T21:54:17.215Z,13.60
2019-05-05T21:57:04.461Z,14.35
2019-05-05T21:59:33.772Z,13.03
2019-05-05T22:02:03.950Z,9.45
2019-05-05T22:04:33.765Z,13.38
2019-05-05T22:07:03.731Z,14.05
2019-05-05T22:09:33.121Z,12.23
2019-05-05T22:12:04.019Z,9.38
2019-05-05T22:14:34.139Z,19.23
2019-05-05T22:17:04.083Z,11.22
2019-05-05T22:19:53.804Z,14.85
2019-05-05T22:22:24.258Z,12.30
2019-05-05T22:24:54.097Z,13.28
2019-05-05T22:27:23.764Z,13.95
2019-05-05T22:29:55.335Z,14.93
2019-05-05T22:32:24.949Z,16.20
2019-05-05T22:34:54.206Z,11.65
2019-05-05T22:37:23.664Z,12.55
2019-05-05T22:39:54.180Z,15.90
2019-05-05T22:42:24.642Z,11.63
2019-05-05T22:44:53.939Z,9.65
2019-05-05T22:47:23.664Z,9.53
2019-05-05T22:49:54.820Z,12.37
2019-05-05T22:52:25.444Z,14.85
2019-05-05T22:54:54.460Z,10.48
2019-05-05T22:57:24.747Z,13.43
2019-05-05T22:59:54.212Z,14.20
2019-05-05T23:02:25.037Z,11.90
2019-05-05T23:05:03.937Z,14.15
2019-05-05T23:07:34.968Z,11.95
2019-05-05T23:10:08.056Z,8.85
2019-05-05T23:12:37.169Z,13.00
2019-05-05T23:15:08.065Z,14.33
2019-05-05T23:17:38.752Z,15.20
2019-05-05T23:20:16.295Z,9.80
2019-05-05T23:22:47.180Z,16.65
2019-05-05T23:25:17.875Z,12.45
2019-05-05T23:27:47.297Z,14.03
2019-05-05T23:30:18.556Z,15.03
2019-05-05T23:32:48.488Z,12.68
2019-05-05T23:35:18.081Z,11.73
2019-05-05T23:37:47.208Z,16.45
2019-05-05T23:40:26.945Z,9.68
2019-05-05T23:42:55.994Z,11.15
2019-05-05T23:45:25.163Z,11.83
2019-05-05T23:47:54.757Z,17.73
2019-05-05T23:50:24.255Z,12.53
2019-05-05T23:52:54.406Z,11.68
2019-05-05T23:55:24.236Z,10.90
2019-05-05T23:57:54.640Z,12.15
